createdAt,value
2019-04-04T00:01:48.062Z,7.57
2019-04-04T00:04:22.228Z,6.67
2019-04-04T00:06:57.625Z,7.37
2019-04-04T00:09:27.711Z,10.80
2019-04-04T00:11:59.376Z,5.83
2019-04-04T00:14:30.870Z,6.67
2019-04-04T00:17:02.523Z,6.87
2019-04-04T00:19:33.925Z,5.97
2019-04-04T00:22:05.572Z,9.03
2019-04-04T00:24:39.352Z,8.07
2019-04-04T00:27:11.166Z,6.60
2019-04-04T00:29:43.104Z,7.90
2019-04-04T00:32:14.718Z,5.87
2019-04-04T00:34:46.374Z,6.67
2019-04-04T00:37:17.842Z,8.03
2019-04-04T00:39:49.109Z,8.07
2019-04-04T00:42:20.383Z,6.60
2019-04-04T00:44:52.031Z,5.50
2019-04-04T00:47:23.706Z,6.10
2019-04-04T00:49:55.015Z,7.60
2019-04-04T00:52:26.581Z,8.75
2019-04-04T00:54:58.268Z,7.60
2019-04-04T00:57:29.575Z,7.60
2019-04-04T01:00:00.880Z,8.23
2019-04-04T01:02:32.829Z,8.60
2019-04-04T01:05:04.188Z,6.47
2019-04-04T01:07:35.902Z,8.83
2019-04-04T01:10:09.239Z,7.33
2019-04-04T01:12:41.623Z,6.90
2019-04-04T01:15:13.148Z,7.27
2019-04-04T01:17:47.106Z,9.30
2019-04-04T01:20:20.347Z,8.33
2019-04-04T01:22:51.828Z,7.70
2019-04-04T01:25:23.839Z,8.00
2019-04-04T01:27:55.886Z,9.05
2019-04-04T01:30:27.304Z,9.07
2019-04-04T01:32:58.587Z,9.83
2019-04-04T01:35:29.852Z,7.33
2019-04-04T01:38:01.167Z,8.30
2019-04-04T01:40:34.656Z,7.33
2019-04-04T01:43:08.823Z,10.03
2019-04-04T01:45:39.507Z,9.53
2019-04-04T01:48:11.177Z,8.13
2019-04-04T01:50:42.848Z,8.10
2019-04-04T01:53:14.806Z,7.08
2019-04-04T01:55:46.843Z,8.03
2019-04-04T01:58:18.172Z,11.23
2019-04-04T02:00:49.492Z,8.83
2019-04-04T02:03:22.664Z,11.77
2019-04-04T02:05:56.223Z,9.23
2019-04-04T02:08:31.696Z,9.37
2019-04-04T02:11:05.482Z,7.87
2019-04-04T02:13:38.879Z,8.75
2019-04-04T02:16:10.561Z,9.90
2019-04-04T02:18:42.311Z,10.07
2019-04-04T02:21:13.624Z,10.63
2019-04-04T02:23:44.978Z,11.07
2019-04-04T02:26:16.671Z,11.20
2019-04-04T02:28:48.352Z,10.53
2019-04-04T02:31:21.038Z,10.47
2019-04-04T02:33:54.302Z,12.53
2019-04-04T02:36:25.550Z,14.97
2019-04-04T02:39:10.579Z,15.70
2019-04-04T02:41:42.046Z,18.67
2019-04-04T02:44:13.801Z,16.77
2019-04-04T02:46:45.834Z,22.00
2019-04-04T02:49:17.252Z,18.50
2019-04-04T02:51:48.497Z,20.27
2019-04-04T02:54:24.228Z,20.13
2019-04-04T02:56:53.092Z,18.73
2019-04-04T02:59:24.483Z,25.23
2019-04-04T03:01:56.413Z,28.23
2019-04-04T03:04:28.139Z,21.67
2019-04-04T03:06:59.764Z,21.97
2019-04-04T03:09:31.100Z,23.37
2019-04-04T03:12:02.391Z,20.90
2019-04-04T03:14:37.404Z,19.62
2019-04-04T03:17:08.532Z,19.73
2019-04-04T03:19:40.755Z,18.30
2019-04-04T03:22:12.739Z,18.90
2019-04-04T03:24:45.128Z,22.17
2019-04-04T03:27:16.782Z,20.97
2019-04-04T03:29:48.417Z,24.07
2019-04-04T03:32:19.695Z,22.67
2019-04-04T03:34:54.451Z,24.50
2019-04-04T03:37:25.739Z,25.73
2019-04-04T03:39:57.043Z,26.27
2019-04-04T03:42:28.471Z,28.87
2019-04-04T03:45:00.401Z,27.57
2019-04-04T03:47:32.157Z,25.10
2019-04-04T03:50:03.452Z,26.90
2019-04-04T03:52:34.721Z,29.17
2019-04-04T03:55:07.140Z,21.83
2019-04-04T03:57:38.749Z,23.40
2019-04-04T04:00:13.932Z,27.13
2019-04-04T04:02:45.256Z,26.40
2019-04-04T04:05:30.938Z,27.57
2019-04-04T04:08:01.133Z,25.50
2019-04-04T04:10:33.824Z,28.98
2019-04-04T04:13:05.587Z,27.20
2019-04-04T04:15:36.864Z,25.35
2019-04-04T04:18:08.496Z,30.33
2019-04-04T04:20:39.793Z,24.93
2019-04-04T04:23:11.077Z,29.37
2019-04-04T04:25:45.005Z,29.17
2019-04-04T04:28:19.809Z,30.63
2019-04-04T04:30:49.321Z,32.97
2019-04-04T04:33:20.658Z,29.42
2019-04-04T04:35:52.622Z,34.10
2019-04-04T04:38:26.878Z,37.47
2019-04-04T04:40:57.293Z,32.63
2019-04-04T04:43:32.393Z,35.10
2019-04-04T04:46:01.543Z,44.97
2019-04-04T04:48:34.195Z,35.23
2019-04-04T04:51:05.617Z,37.07
2019-04-04T04:53:37.065Z,41.27
2019-04-04T04:56:08.514Z,43.50
2019-04-04T04:58:42.128Z,40.83
2019-04-04T05:01:13.225Z,40.23
2019-04-04T05:03:44.574Z,44.17
2019-04-04T05:06:15.925Z,39.43
2019-04-04T05:08:48.284Z,40.23
2019-04-04T05:11:20.212Z,42.23
2019-04-04T05:13:52.520Z,40.73
2019-04-04T05:16:23.875Z,38.67
2019-04-04T05:18:55.896Z,38.10
2019-04-04T05:21:28.835Z,38.70
2019-04-04T05:24:00.294Z,43.97
2019-04-04T05:26:32.265Z,40.97
2019-04-04T05:29:05.099Z,35.63
2019-04-04T05:31:36.366Z,36.23
2019-04-04T05:34:07.723Z,36.23
2019-04-04T05:36:39.098Z,32.80
2019-04-04T05:39:11.031Z,29.50
2019-04-04T05:41:42.752Z,30.10
2019-04-04T05:44:14.424Z,27.33
2019-04-04T05:46:45.747Z,34.07
2019-04-04T05:49:17.089Z,28.87
2019-04-04T05:51:49.050Z,26.83
2019-04-04T05:54:20.447Z,26.83
2019-04-04T05:56:51.762Z,28.43
2019-04-04T05:59:23.922Z,26.97
2019-04-04T06:01:56.530Z,27.98
2019-04-04T06:04:27.833Z,29.97
2019-04-04T06:06:59.138Z,29.73
2019-04-04T06:09:31.161Z,28.73
2019-04-04T06:12:02.443Z,28.87
2019-04-04T06:14:33.611Z,28.60
2019-04-04T06:17:07.170Z,25.43
2019-04-04T06:19:38.579Z,23.97
2019-04-04T06:22:10.606Z,23.20
2019-04-04T06:24:42.613Z,27.83
2019-04-04T06:27:13.923Z,23.27
2019-04-04T06:29:47.603Z,22.47
2019-04-04T06:32:18.450Z,21.93
2019-04-04T06:34:50.109Z,25.23
2019-04-04T06:37:21.413Z,19.17
2019-04-04T06:39:54.358Z,22.50
2019-04-04T06:42:25.687Z,22.57
2019-04-04T06:44:57.537Z,24.07
2019-04-04T06:47:32.268Z,24.40
2019-04-04T06:50:02.900Z,23.00
2019-04-04T06:52:34.536Z,24.92
2019-04-04T06:55:06.044Z,24.13
2019-04-04T06:57:37.782Z,24.53
2019-04-04T07:00:11.073Z,22.37
2019-04-04T07:02:42.338Z,24.50
2019-04-04T07:05:14.281Z,24.37
2019-04-04T07:07:46.723Z,21.90
2019-04-04T07:10:21.032Z,21.97
2019-04-04T07:12:51.308Z,24.35
2019-04-04T07:15:23.062Z,21.43
2019-04-04T07:17:55.184Z,23.93
2019-04-04T07:20:28.367Z,23.40
2019-04-04T07:22:59.446Z,22.47
2019-04-04T07:25:31.476Z,22.25
2019-04-04T07:28:03.060Z,23.60
2019-04-04T07:30:34.643Z,21.70
2019-04-04T07:33:06.297Z,22.60
2019-04-04T07:35:38.458Z,23.43
2019-04-04T07:38:10.249Z,21.80
2019-04-04T07:40:41.570Z,18.40
2019-04-04T07:43:12.910Z,19.33
2019-04-04T07:45:44.179Z,19.10
2019-04-04T07:48:17.843Z,22.90
2019-04-04T07:50:51.238Z,19.70
2019-04-04T07:53:21.324Z,17.70
2019-04-04T07:55:52.576Z,19.00
2019-04-04T07:58:23.953Z,18.23
2019-04-04T08:00:55.993Z,17.77
2019-04-04T08:03:27.653Z,17.10
2019-04-04T08:05:58.953Z,17.17
2019-04-04T08:08:30.227Z,19.90
2019-04-04T08:11:01.478Z,17.37
2019-04-04T08:13:32.858Z,17.33
2019-04-04T08:16:04.695Z,15.63
2019-04-04T08:18:36.010Z,16.87
2019-04-04T08:21:07.704Z,17.17
2019-04-04T08:23:39.129Z,15.03
2019-04-04T08:26:10.385Z,16.83
2019-04-04T08:28:42.054Z,16.40
2019-04-04T08:31:13.344Z,15.53
2019-04-04T08:33:44.688Z,17.70
2019-04-04T08:36:16.002Z,15.17
2019-04-04T08:38:47.313Z,14.63
2019-04-04T08:41:19.514Z,14.58
2019-04-04T08:43:50.739Z,20.33
2019-04-04T08:46:22.716Z,16.20
2019-04-04T08:48:53.980Z,14.83
2019-04-04T08:51:25.318Z,15.53
2019-04-04T08:53:56.675Z,15.77
2019-04-04T08:56:28.401Z,14.57
2019-04-04T08:59:00.112Z,17.77
2019-04-04T09:01:32.143Z,16.57
2019-04-04T09:04:03.765Z,16.23
2019-04-04T09:06:35.862Z,16.90
2019-04-04T09:09:09.585Z,16.75
2019-04-04T09:11:40.848Z,15.87
2019-04-04T09:14:12.483Z,17.87
2019-04-04T09:16:44.110Z,19.33
2019-04-04T09:19:15.371Z,15.37
2019-04-04T09:21:46.745Z,20.73
2019-04-04T09:24:18.056Z,17.87
2019-04-04T09:26:49.710Z,18.20
2019-04-04T09:29:22.077Z,17.42
2019-04-04T09:31:53.360Z,18.20
2019-04-04T09:34:25.514Z,18.47
2019-04-04T09:36:57.177Z,19.37
2019-04-04T09:39:28.706Z,18.73
2019-04-04T09:42:01.202Z,18.87
2019-04-04T09:44:33.086Z,21.37
2019-04-04T09:47:05.726Z,21.53
2019-04-04T09:49:37.572Z,20.27
2019-04-04T09:52:09.231Z,21.40
2019-04-04T09:54:40.735Z,20.02
2019-04-04T09:57:11.968Z,21.07
2019-04-04T09:59:44.502Z,17.80
2019-04-04T10:02:16.265Z,19.23
2019-04-04T10:04:47.923Z,23.40
2019-04-04T10:07:19.217Z,23.87
2019-04-04T10:09:50.781Z,21.63
2019-04-04T10:12:22.123Z,19.87
2019-04-04T10:14:53.824Z,21.70
2019-04-04T10:17:25.571Z,21.40
2019-04-04T10:19:57.020Z,20.60
2019-04-04T10:22:29.131Z,24.18
2019-04-04T10:25:00.372Z,27.07
2019-04-04T10:27:31.617Z,24.77
2019-04-04T10:30:02.912Z,26.73
2019-04-04T10:32:34.523Z,23.18
2019-04-04T10:35:06.547Z,25.43
2019-04-04T10:37:38.522Z,25.33
2019-04-04T10:40:10.334Z,28.03
2019-04-04T10:42:42.047Z,26.50
2019-04-04T10:45:13.505Z,28.45
2019-04-04T10:47:44.754Z,30.80
2019-04-04T10:50:16.334Z,25.68
2019-04-04T10:52:47.653Z,26.30
2019-04-04T10:55:19.428Z,27.90
2019-04-04T10:57:51.253Z,29.93
2019-04-04T11:00:23.824Z,28.37
2019-04-04T11:02:55.973Z,24.60
2019-04-04T11:05:27.303Z,28.50
2019-04-04T11:07:59.788Z,28.83
2019-04-04T11:10:31.299Z,25.73
2019-04-04T11:13:03.150Z,28.77
2019-04-04T11:15:35.010Z,28.17
2019-04-04T11:18:06.307Z,28.45
2019-04-04T11:20:38.417Z,28.70
2019-04-04T11:23:09.806Z,29.30
2019-04-04T11:25:41.376Z,27.48
2019-04-04T11:28:13.698Z,28.23
2019-04-04T11:30:44.997Z,27.30
2019-04-04T11:33:16.248Z,33.70
2019-04-04T11:35:47.799Z,30.25
2019-04-04T11:38:19.398Z,31.23
2019-04-04T11:40:50.685Z,31.63
2019-04-04T11:43:22.278Z,31.20
2019-04-04T11:45:56.126Z,30.07
2019-04-04T11:48:27.782Z,30.03
2019-04-04T11:50:59.602Z,28.40
2019-04-04T11:53:30.904Z,34.23
2019-04-04T11:56:02.237Z,32.17
2019-04-04T11:58:33.888Z,34.73
2019-04-04T12:01:07.724Z,33.47
2019-04-04T12:03:40.165Z,33.83
2019-04-04T12:06:11.792Z,36.20
2019-04-04T12:08:43.110Z,32.20
2019-04-04T12:11:15.614Z,31.45
2019-04-04T12:13:50.424Z,33.67
2019-04-04T12:16:20.989Z,32.93
2019-04-04T12:18:53.014Z,35.83
2019-04-04T12:21:24.307Z,37.37
2019-04-04T12:23:55.626Z,35.67
2019-04-04T12:26:29.280Z,39.13
2019-04-04T12:29:01.708Z,40.60
2019-04-04T12:31:33.019Z,38.63
2019-04-04T12:34:05.028Z,39.77
2019-04-04T12:36:36.982Z,39.83
2019-04-04T12:39:10.559Z,41.73
2019-04-04T12:41:42.256Z,50.27
2019-04-04T12:44:13.547Z,46.53
2019-04-04T12:46:45.309Z,53.28
2019-04-04T12:49:16.624Z,52.13
2019-04-04T12:51:48.484Z,53.97
2019-04-04T12:54:19.830Z,53.63
2019-04-04T12:56:51.557Z,56.45
2019-04-04T12:59:25.136Z,60.97
2019-04-04T13:01:56.454Z,57.77
2019-04-04T13:04:31.985Z,55.27
2019-04-04T13:07:00.669Z,58.47
2019-04-04T13:09:32.695Z,61.27
2019-04-04T13:12:04.166Z,62.33
2019-04-04T13:14:35.523Z,63.00
2019-04-04T13:17:06.944Z,64.40
2019-04-04T13:19:39.621Z,63.80
2019-04-04T13:22:11.100Z,66.53
2019-04-04T13:24:42.440Z,63.93
2019-04-04T13:27:14.422Z,57.83
2019-04-04T13:29:45.673Z,64.40
2019-04-04T13:32:16.969Z,66.00
2019-04-04T13:34:58.565Z,70.17
2019-04-04T13:37:21.044Z,75.47
2019-04-04T13:39:52.688Z,77.13
2019-04-04T13:42:24.030Z,77.50
2019-04-04T13:44:55.708Z,73.40
2019-04-04T13:47:27.011Z,72.37
2019-04-04T13:49:58.368Z,74.03
2019-04-04T13:52:30.404Z,82.87
2019-04-04T13:55:01.715Z,78.37
2019-04-04T13:57:33.072Z,81.93
2019-04-04T14:00:06.122Z,82.77
2019-04-04T14:02:56.311Z,86.13
2019-04-04T14:05:40.268Z,80.20
2019-04-04T14:08:37.116Z,79.93
2019-04-04T14:11:42.191Z,78.43
2019-04-04T14:14:29.053Z,88.50
2019-04-04T14:17:21.308Z,84.20
2019-04-04T14:20:13.785Z,78.20
2019-04-04T14:23:10.361Z,80.10
2019-04-04T14:25:59.687Z,77.27
2019-04-04T14:28:51.079Z,85.30
2019-04-04T14:31:33.734Z,84.07
2019-04-04T14:34:37.923Z,88.40
2019-04-04T14:37:27.278Z,74.80
2019-04-04T14:40:01.880Z,73.92
2019-04-04T14:42:33.289Z,78.02
2019-04-04T14:45:25.866Z,74.97
2019-04-04T14:48:18.565Z,84.65
2019-04-04T14:51:11.192Z,77.40
2019-04-04T14:54:16.375Z,80.43
2019-04-04T14:57:16.983Z,74.43
2019-04-04T15:00:06.058Z,79.20
2019-04-04T15:03:13.774Z,77.55
2019-04-04T15:06:08.475Z,71.85
2019-04-04T15:09:22.402Z,72.40
2019-04-04T15:12:07.353Z,76.27
2019-04-04T15:14:58.496Z,73.40
2019-04-04T15:17:50.921Z,71.63
2019-04-04T15:20:47.312Z,72.07
2019-04-04T15:23:34.249Z,72.50
2019-04-04T15:26:25.077Z,72.17
2019-04-04T15:29:21.066Z,81.17
2019-04-04T15:32:04.478Z,77.82
2019-04-04T15:34:58.929Z,76.90
2019-04-04T15:37:42.853Z,77.20
2019-04-04T15:40:33.413Z,77.72
2019-04-04T15:43:48.367Z,76.60
2019-04-04T15:46:45.247Z,80.10
2019-04-04T15:49:48.954Z,81.15
2019-04-04T15:52:46.073Z,80.87
2019-04-04T15:55:50.132Z,79.60
2019-04-04T15:58:52.163Z,80.15
2019-04-04T16:01:42.240Z,84.30
2019-04-04T16:04:34.655Z,83.90
2019-04-04T16:07:44.601Z,84.03
2019-04-04T16:10:31.017Z,82.37
2019-04-04T16:13:31.035Z,92.67
2019-04-04T16:16:31.891Z,86.17
2019-04-04T16:19:33.104Z,80.93
2019-04-04T16:22:21.606Z,86.53
2019-04-04T16:25:12.625Z,90.62
2019-04-04T16:28:00.536Z,87.33
2019-04-04T16:31:01.203Z,90.17
2019-04-04T16:33:43.117Z,95.00
2019-04-04T16:37:04.463Z,89.37
2019-04-04T16:39:50.782Z,88.90
2019-04-04T16:42:20.562Z,93.60
2019-04-04T16:44:52.137Z,98.87
2019-04-04T16:47:23.452Z,97.77
2019-04-04T16:49:54.868Z,88.42
2019-04-04T16:52:26.534Z,89.43
2019-04-04T16:54:57.926Z,89.90
2019-04-04T16:57:29.658Z,93.20
2019-04-04T17:00:00.964Z,93.90
2019-04-04T17:02:32.295Z,93.30
2019-04-04T17:05:04.456Z,89.37
2019-04-04T17:07:35.867Z,96.97
2019-04-04T17:10:08.978Z,97.67
2019-04-04T17:12:40.323Z,90.90
2019-04-04T17:15:13.284Z,102.80
2019-04-04T17:17:44.701Z,89.80
2019-04-04T17:20:16.554Z,97.37
2019-04-04T17:22:48.258Z,102.47
2019-04-04T17:25:19.908Z,105.58
2019-04-04T17:27:52.151Z,105.60
2019-04-04T17:30:23.410Z,102.27
2019-04-04T17:32:55.775Z,104.58
2019-04-04T17:35:27.427Z,131.70
2019-04-04T17:37:58.771Z,105.40
2019-04-04T17:40:30.200Z,113.17
2019-04-04T17:43:01.504Z,112.03
2019-04-04T17:45:32.858Z,102.70
2019-04-04T17:48:05.083Z,107.67
2019-04-04T17:50:36.789Z,108.73
2019-04-04T17:53:08.726Z,104.20
2019-04-04T17:55:40.421Z,107.57
2019-04-04T17:58:12.779Z,103.43
2019-04-04T18:00:44.190Z,107.43
2019-04-04T18:03:16.449Z,108.03
2019-04-04T18:05:47.874Z,115.73
2019-04-04T18:08:19.283Z,152.23
2019-04-04T18:10:50.544Z,127.17
2019-04-04T18:13:21.884Z,115.10
2019-04-04T18:15:55.015Z,109.55
2019-04-04T18:18:26.343Z,114.80
2019-04-04T18:20:58.050Z,115.90
2019-04-04T18:23:29.781Z,125.23
2019-04-04T18:26:01.566Z,107.73
2019-04-04T18:28:33.233Z,109.43
2019-04-04T18:31:05.014Z,106.05
2019-04-04T18:33:36.696Z,103.27
2019-04-04T18:36:08.286Z,107.03
2019-04-04T18:38:40.214Z,107.50
2019-04-04T18:41:11.535Z,101.63
2019-04-04T18:43:42.901Z,108.73
2019-04-04T18:46:14.186Z,108.87
2019-04-04T18:48:46.093Z,109.57
2019-04-04T18:51:17.573Z,98.50
2019-04-04T18:53:49.294Z,114.75
2019-04-04T18:56:21.080Z,105.30
2019-04-04T18:58:52.450Z,105.90
2019-04-04T19:01:23.805Z,108.67
2019-04-04T19:03:55.982Z,106.27
2019-04-04T19:06:27.721Z,101.70
2019-04-04T19:09:00.428Z,103.70
2019-04-04T19:11:31.816Z,107.97
2019-04-04T19:14:03.164Z,102.47
2019-04-04T19:16:35.271Z,104.27
2019-04-04T19:19:06.679Z,102.85
2019-04-04T19:21:38.028Z,99.62
2019-04-04T19:24:09.398Z,115.88
2019-04-04T19:26:40.829Z,106.70
2019-04-04T19:29:12.537Z,111.53
2019-04-04T19:31:46.201Z,115.20
2019-04-04T19:34:17.754Z,109.60
2019-04-04T19:36:49.059Z,113.23
2019-04-04T19:39:20.799Z,107.97
2019-04-04T19:41:52.901Z,114.35
2019-04-04T19:44:24.480Z,111.17
2019-04-04T19:46:55.856Z,112.70
2019-04-04T19:49:27.806Z,106.50
2019-04-04T19:51:59.497Z,111.47
2019-04-04T19:54:31.242Z,108.83
2019-04-04T19:57:02.610Z,117.70
2019-04-04T19:59:33.921Z,114.50
2019-04-04T20:02:05.234Z,113.47
2019-04-04T20:04:36.522Z,128.70
2019-04-04T20:07:08.213Z,112.70
2019-04-04T20:09:39.513Z,114.70
2019-04-04T20:12:14.631Z,118.00
2019-04-04T20:14:45.951Z,112.37
2019-04-04T20:17:17.250Z,111.57
2019-04-04T20:19:48.644Z,108.13
2019-04-04T20:22:19.989Z,125.50
2019-04-04T20:24:51.329Z,113.60
2019-04-04T20:27:22.769Z,137.17
2019-04-04T20:29:54.880Z,137.95
2019-04-04T20:32:26.343Z,128.23
2019-04-04T20:34:57.692Z,146.93
2019-04-04T20:37:29.022Z,140.45
2019-04-04T20:40:09.744Z,135.13
2019-04-04T20:42:41.469Z,150.50
2019-04-04T20:45:13.104Z,152.93
2019-04-04T20:47:44.408Z,147.43
2019-04-04T20:50:15.913Z,143.47
2019-04-04T20:52:48.180Z,152.23
2019-04-04T20:55:19.506Z,143.63
2019-04-04T20:57:51.226Z,148.80
2019-04-04T21:00:23.508Z,169.83
2019-04-04T21:02:55.717Z,166.87
2019-04-04T21:05:27.212Z,158.27
2019-04-04T21:07:59.008Z,149.77
2019-04-04T21:10:30.361Z,162.27
2019-04-04T21:13:01.888Z,157.23
2019-04-04T21:15:37.032Z,154.77
2019-04-04T21:18:08.493Z,158.83
2019-04-04T21:20:40.291Z,170.10
2019-04-04T21:23:11.597Z,165.00
2019-04-04T21:25:43.247Z,157.63
2019-04-04T21:28:15.567Z,156.90
2019-04-04T21:30:47.471Z,159.63
2019-04-04T21:33:19.842Z,153.37
2019-04-04T21:35:51.222Z,152.57
2019-04-04T21:38:22.696Z,158.47
2019-04-04T21:40:54.429Z,157.80
2019-04-04T21:43:26.993Z,157.10
2019-04-04T21:45:59.163Z,153.40
2019-04-04T21:48:30.941Z,148.07
2019-04-04T21:51:02.266Z,145.93
2019-04-04T21:53:33.933Z,162.87
2019-04-04T21:56:05.335Z,167.60
2019-04-04T21:58:37.586Z,141.73
2019-04-04T22:01:09.245Z,155.53
2019-04-04T22:03:40.982Z,148.33
2019-04-04T22:06:12.713Z,141.50
2019-04-04T22:08:46.998Z,149.73
2019-04-04T22:11:18.815Z,144.20
2019-04-04T22:13:50.176Z,142.33
2019-04-04T22:16:21.914Z,143.57
2019-04-04T22:18:53.299Z,133.47
2019-04-04T22:21:25.212Z,130.10
2019-04-04T22:23:56.881Z,136.80
2019-04-04T22:26:29.610Z,129.48
2019-04-04T22:29:01.013Z,127.73
2019-04-04T22:31:32.314Z,131.83
2019-04-04T22:34:03.626Z,117.93
2019-04-04T22:36:34.987Z,116.57
2019-04-04T22:39:08.712Z,110.97
2019-04-04T22:41:40.027Z,127.15
2019-04-04T22:44:11.451Z,117.67
2019-04-04T22:46:42.744Z,111.90
2019-04-04T22:49:14.404Z,120.17
2019-04-04T22:51:45.761Z,119.87
2019-04-04T22:54:17.828Z,118.00
2019-04-04T22:56:49.489Z,122.60
2019-04-04T22:59:21.291Z,117.60
2019-04-04T23:01:52.608Z,116.73
2019-04-04T23:04:23.942Z,107.90
2019-04-04T23:06:55.620Z,125.43
2019-04-04T23:09:27.289Z,111.63
2019-04-04T23:11:58.643Z,120.90
2019-04-04T23:14:30.469Z,116.03
2019-04-04T23:17:02.062Z,115.22
2019-04-04T23:19:33.329Z,109.77
2019-04-04T23:22:04.670Z,110.87
2019-04-04T23:24:36.379Z,100.73
2019-04-04T23:27:07.645Z,91.17
2019-04-04T23:29:38.993Z,89.00
2019-04-04T23:32:10.703Z,91.73
2019-04-04T23:34:42.058Z,86.30
2019-04-04T23:37:13.414Z,91.83
2019-04-04T23:39:45.463Z,82.27
2019-04-04T23:42:16.866Z,85.97
2019-04-04T23:45:00.179Z,86.30
2019-04-04T23:47:21.676Z,87.33
2019-04-04T23:49:52.979Z,90.33
2019-04-04T23:52:24.910Z,87.27
2019-04-04T23:54:56.536Z,91.53
2019-04-04T23:57:28.284Z,98.13
